Time;durP1;ratioP1;P1;durP2;ratioP2;P2;SDS_P1;SDS_P2;PMS_P1;PMS_P2;Temp;Humidity;BMP_temperature;BMP_pressure;BME280_temperature;BME280_humidity;BME280_pressure;Samples;Min_cycle;Max_cycle;Signal;HPM_P1;HPM_P2
2021/09/01 00:01:40;;;;;;;11.08;4.80;;;;;;;13.16;78.39;99049.53;1743260;82;21047;-64
2021/09/01 00:04:06;;;;;;;9.35;4.62;;;;;;;13.16;78.46;99040.78;1684027;85;21027;-64
2021/09/01 00:06:33;;;;;;;9.33;4.67;;;;;;;13.18;78.52;99045.95;1723436;82;21113;-64
2021/09/01 00:08:59;;;;;;;7.83;4.55;;;;;;;13.14;78.46;99045.75;1723744;82;21018;-64
2021/09/01 00:11:25;;;;;;;8.78;5.25;;;;;;;13.10;78.41;99050.76;1685260;85;21148;-65
2021/09/01 00:13:52;;;;;;;8.90;4.72;;;;;;;13.09;78.36;99044.48;1725095;82;21069;-64
2021/09/01 00:16:28;;;;;;;5.97;4.20;;;;;;;13.12;78.35;99050.70;1685099;85;21090;-64
2021/09/01 00:19:04;;;;;;;10.20;4.78;;;;;;;13.13;78.17;99052.88;1723603;82;20987;-64
2021/09/01 00:21:30;;;;;;;6.60;4.30;;;;;;;13.11;77.97;99043.61;1723747;82;21046;-64
2021/09/01 00:23:57;;;;;;;5.95;4.42;;;;;;;13.08;77.91;99048.28;1725255;82;21011;-65
2021/09/01 00:26:24;;;;;;;6.65;4.80;;;;;;;13.05;77.99;99052.19;1736052;82;21058;-64
2021/09/01 00:28:52;;;;;;;10.23;5.37;;;;;;;13.02;77.94;99052.25;1752979;82;21071;-64
2021/09/01 00:31:19;;;;;;;12.55;6.25;;;;;;;13.02;77.91;99040.50;1742459;82;21609;-64
2021/09/01 00:33:47;;;;;;;9.23;5.10;;;;;;;13.01;77.95;99046.52;1679489;85;21556;-65
2021/09/01 00:36:13;;;;;;;8.35;5.25;;;;;;;13.02;77.94;99044.05;1732038;82;21078;-64
2021/09/01 00:38:40;;;;;;;8.98;4.53;;;;;;;13.03;77.93;99042.13;1752850;82;21491;-65
2021/09/01 00:41:07;;;;;;;8.65;5.17;;;;;;;13.01;77.87;99043.79;1749245;82;21110;-64
2021/09/01 00:43:33;;;;;;;7.97;5.47;;;;;;;12.95;77.94;99032.16;1750866;82;20976;-64
2021/09/01 00:46:00;;;;;;;8.20;4.62;;;;;;;12.94;78.04;99046.93;1749682;82;21090;-64
2021/09/01 00:48:27;;;;;;;7.55;4.95;;;;;;;12.92;78.08;99038.80;1708684;83;21046;-64
2021/09/01 00:50:54;;;;;;;7.05;4.22;;;;;;;12.94;78.03;99039.28;1737938;82;21992;-64
2021/09/01 00:53:24;;;;;;;7.42;4.25;;;;;;;12.93;77.94;99043.94;1747965;82;20964;-64
2021/09/01 00:55:51;;;;;;;8.03;4.20;;;;;;;12.93;77.87;99045.30;1723408;83;21091;-64
2021/09/01 00:58:17;;;;;;;;;;;;;;;12.93;77.88;99052.72;1715834;82;20952;-64
2021/09/01 01:03:33;;;;;;;8.60;5.28;;;;;;;12.78;78.37;99051.64;1686331;85;21204;-63
2021/09/01 01:05:59;;;;;;;9.85;4.80;;;;;;;12.75;78.50;99039.95;1730378;82;21027;-63
2021/09/01 01:08:28;;;;;;;8.98;5.00;;;;;;;12.77;78.54;99042.63;1751188;82;20935;-64
2021/09/01 01:10:56;;;;;;;7.42;4.60;;;;;;;12.76;78.55;99037.45;1723242;82;21050;-64
2021/09/01 01:13:26;;;;;;;8.68;4.72;;;;;;;12.74;78.65;99035.05;1686310;85;21039;-64
2021/09/01 01:15:58;;;;;;;8.40;4.75;;;;;;;12.73;78.76;99039.43;1723291;82;21118;-63
2021/09/01 01:18:25;;;;;;;8.15;5.05;;;;;;;12.73;78.85;99042.98;1725040;82;21529;-63
2021/09/01 01:20:52;;;;;;;7.25;4.78;;;;;;;12.72;78.83;99039.17;1723751;82;21676;-63
2021/09/01 01:23:19;;;;;;;8.23;4.75;;;;;;;12.67;78.87;99040.09;1739921;82;21001;-64
2021/09/01 01:25:46;;;;;;;6.03;4.33;;;;;;;12.67;78.87;99040.65;1747159;82;21537;-64
2021/09/01 01:28:13;;;;;;;;;;;;;;;12.68;78.74;99036.81;1726720;82;21024;-64
2021/09/01 01:30:40;;;;;;;9.10;4.87;;;;;;;12.70;78.58;99031.84;1734347;82;20421;-64
2021/09/01 01:33:08;;;;;;;7.42;4.87;;;;;;;12.64;78.77;99028.42;1673770;83;20979;-65
2021/09/01 01:35:42;;;;;;;5.42;4.50;;;;;;;12.64;78.90;99022.95;1723962;82;21126;-64
2021/09/01 01:38:10;;;;;;;6.08;4.70;;;;;;;12.62;78.93;99021.06;1661553;85;21498;-65
2021/09/01 01:40:37;;;;;;;7.97;4.83;;;;;;;12.60;79.05;99013.75;1752327;82;21517;-64
2021/09/01 01:43:04;;;;;;;7.20;5.25;;;;;;;12.55;79.20;99015.20;1724587;80;21035;-64
2021/09/01 01:45:37;;;;;;;6.75;5.10;;;;;;;12.54;79.19;99012.20;1749220;82;21050;-63
2021/09/01 01:48:05;;;;;;;11.73;4.70;;;;;;;12.56;79.02;99014.09;1751698;82;21078;-64
2021/09/01 01:50:32;;;;;;;10.50;4.60;;;;;;;12.58;78.96;99007.77;1753223;82;21115;-65
2021/09/01 01:52:59;;;;;;;8.20;4.50;;;;;;;12.58;78.90;99001.48;1736620;82;21011;-65
2021/09/01 01:55:25;;;;;;;8.65;5.12;;;;;;;12.60;78.91;99000.64;1730018;82;21779;-65
2021/09/01 01:57:51;;;;;;;;;;;;;;;12.61;78.90;99002.27;1733151;82;20968;-65
2021/09/01 02:00:18;;;;;;;7.50;5.10;;;;;;;12.59;78.92;98994.92;1723562;82;20103;-65
2021/09/01 02:02:44;;;;;;;5.72;4.50;;;;;;;12.48;79.33;98996.48;1736876;82;21047;-65
2021/09/01 02:05:10;;;;;;;11.25;5.17;;;;;;;12.48;79.37;98990.22;1720891;82;21545;-65
2021/09/01 02:07:37;;;;;;;8.95;5.10;;;;;;;12.49;79.31;98985.02;1728770;82;21051;-65
2021/09/01 02:10:08;;;;;;;10.50;5.00;;;;;;;12.47;79.34;98981.77;1739457;82;21118;-65
2021/09/01 02:12:36;;;;;;;9.10;4.50;;;;;;;12.47;79.40;98984.49;1728449;82;20932;-64
2021/09/01 02:15:05;;;;;;;9.58;5.62;;;;;;;12.47;79.43;98990.77;1711989;82;20963;-64
2021/09/01 02:17:31;;;;;;;9.13;5.20;;;;;;;12.47;79.33;98984.49;1715348;82;20940;-64
2021/09/01 02:19:59;;;;;;;9.68;5.03;;;;;;;12.46;79.45;98987.80;1725730;82;21004;-65
2021/09/01 02:22:25;;;;;;;8.50;4.80;;;;;;;12.42;79.67;98985.97;1736058;82;21932;-65
2021/09/01 02:24:51;;;;;;;;;;;;;;;12.39;79.83;98981.13;1738239;82;21030;-64
2021/09/01 02:27:18;;;;;;;6.50;4.72;;;;;;;12.41;79.92;98978.34;1720477;81;20111;-65
2021/09/01 02:29:44;;;;;;;9.15;5.25;;;;;;;12.38;80.14;98972.12;1739361;82;21059;-65
2021/09/01 02:32:11;;;;;;;6.65;4.67;;;;;;;12.43;80.32;98976.68;1737566;82;21111;-64
2021/09/01 02:34:37;;;;;;;7.67;4.67;;;;;;;12.48;80.34;98980.11;1727299;82;21001;-64
2021/09/01 02:37:03;;;;;;;;;;;;;;;12.53;80.26;98981.13;1712519;82;21111;-65
2021/09/01 02:39:30;;;;;;;6.42;4.35;;;;;;;12.53;80.13;98982.49;1710344;82;20436;-65
2021/09/01 02:41:57;;;;;;;7.55;4.40;;;;;;;12.41;80.26;98973.42;1737221;82;21110;-65
2021/09/01 02:44:24;;;;;;;6.83;4.53;;;;;;;12.42;80.27;98976.41;1734230;82;21056;-65
2021/09/01 02:46:50;;;;;;;6.05;4.20;;;;;;;12.45;80.09;98982.08;1712256;82;21641;-64
2021/09/01 02:49:17;;;;;;;6.97;4.53;;;;;;;12.47;80.04;98982.58;1725728;82;21011;-65
2021/09/01 02:51:43;;;;;;;6.87;4.83;;;;;;;12.48;80.06;98981.47;1736617;82;21545;-64
2021/09/01 02:54:10;;;;;;;8.95;4.67;;;;;;;12.50;80.07;98977.64;1736977;82;21000;-65
2021/09/01 02:56:36;;;;;;;8.98;4.78;;;;;;;12.52;79.99;98980.31;1724948;82;21546;-64
2021/09/01 02:59:03;;;;;;;7.47;5.05;;;;;;;12.52;79.94;98977.59;1737544;82;21019;-64
2021/09/01 03:01:29;;;;;;;5.95;4.75;;;;;;;12.49;79.98;98976.83;1724134;82;21059;-64
2021/09/01 03:03:56;;;;;;;7.62;5.45;;;;;;;12.49;79.93;98976.83;1737983;82;20976;-64
2021/09/01 03:06:23;;;;;;;7.25;5.15;;;;;;;12.52;79.81;98966.66;1732627;82;21609;-64
2021/09/01 03:08:49;;;;;;;8.45;4.58;;;;;;;12.54;79.73;98963.06;1714075;82;20960;-64
2021/09/01 03:11:16;;;;;;;7.40;4.67;;;;;;;12.57;79.65;98961.12;1738614;82;21008;-64
2021/09/01 03:13:44;;;;;;;7.80;4.83;;;;;;;12.60;79.61;98967.88;1736427;82;20988;-65
2021/09/01 03:16:12;;;;;;;9.40;4.65;;;;;;;12.59;79.57;98956.70;1710692;82;21039;-65
2021/09/01 03:18:38;;;;;;;5.75;4.75;;;;;;;12.56;79.66;98958.67;1733939;82;21495;-65
2021/09/01 03:21:05;;;;;;;8.15;4.35;;;;;;;12.51;79.86;98957.40;1731717;82;21016;-64
2021/09/01 03:23:32;;;;;;;6.12;4.58;;;;;;;12.51;79.90;98962.30;1700280;82;21028;-65
2021/09/01 03:25:58;;;;;;;8.63;4.92;;;;;;;12.51;79.83;98956.03;1663750;86;21054;-65
2021/09/01 03:28:24;;;;;;;;;;;;;;;12.51;79.95;98954.67;1727177;82;21031;-65
2021/09/01 03:30:51;;;;;;;8.85;4.55;;;;;;;12.54;80.00;98949.41;1738869;81;20178;-65
2021/09/01 03:33:18;;;;;;;6.92;4.62;;;;;;;12.54;80.09;98950.77;1718690;82;21054;-65
2021/09/01 03:35:44;;;;;;;6.67;4.45;;;;;;;12.57;80.13;98957.58;1718802;82;21067;-65
2021/09/01 03:38:11;;;;;;;6.37;4.47;;;;;;;12.58;80.21;98953.16;1709779;84;21063;-65
2021/09/01 03:40:37;;;;;;;8.00;4.55;;;;;;;12.64;80.23;98954.70;1719562;82;21095;-65
2021/09/01 03:43:03;;;;;;;7.00;4.80;;;;;;;12.72;80.16;98959.42;1736904;82;21506;-65
2021/09/01 03:45:30;;;;;;;7.45;5.03;;;;;;;12.81;80.23;98957.61;1730698;82;21031;-65
2021/09/01 03:47:56;;;;;;;6.72;4.17;;;;;;;12.90;80.36;98957.69;1694189;83;21015;-65
2021/09/01 03:50:23;;;;;;;9.00;4.55;;;;;;;13.00;80.42;98958.86;1712235;82;21082;-64
2021/09/01 03:52:49;;;;;;;;;;;;;;;13.11;80.46;98957.53;1642194;86;21546;-65
2021/09/01 03:55:16;;;;;;;8.23;4.53;;;;;;;13.23;80.43;98954.27;1670427;85;20406;-65
2021/09/01 03:57:43;;;;;;;8.60;5.03;;;;;;;13.28;80.46;98954.17;1670762;84;21142;-65
2021/09/01 04:00:11;;;;;;;10.43;5.20;;;;;;;13.36;80.43;98954.78;1713032;82;20980;-65
2021/09/01 04:02:38;;;;;;;8.03;4.72;;;;;;;13.40;80.38;98949.77;1735512;82;20987;-65
2021/09/01 04:05:05;;;;;;;;;;;;;;;13.48;80.25;98952.33;1735583;82;21518;-65
2021/09/01 04:07:33;;;;;;;9.50;4.05;;;;;;;13.58;80.06;98958.91;1710422;82;20129;-65
2021/09/01 04:09:59;;;;;;;;;;;;;;;13.62;80.05;98946.80;1714331;82;21483;-65
2021/09/01 04:12:25;;;;;;;8.28;4.60;;;;;;;13.70;79.93;98947.43;1711524;82;20114;-64
2021/09/01 04:14:51;;;;;;;;;;;;;;;13.69;79.86;98937.59;1730194;82;21055;-65
2021/09/01 04:17:18;;;;;;;8.63;4.72;;;;;;;13.76;79.81;98940.70;1729465;82;20435;-65
2021/09/01 04:19:44;;;;;;;6.87;4.47;;;;;;;13.69;79.94;98949.91;1716579;82;20972;-65
2021/09/01 04:22:11;;;;;;;9.00;4.80;;;;;;;13.74;79.84;98944.33;1738731;82;21567;-66
2021/09/01 04:24:37;;;;;;;8.55;4.70;;;;;;;13.84;79.64;98949.54;1721622;82;21035;-65
2021/09/01 04:27:04;;;;;;;6.75;4.70;;;;;;;13.93;79.49;98945.73;1725655;82;21574;-67
2021/09/01 04:29:32;;;;;;;9.15;4.65;;;;;;;14.06;79.38;98943.23;1731347;82;21004;-67
2021/09/01 04:31:59;;;;;;;7.20;4.92;;;;;;;14.15;79.15;98946.26;1645906;86;21542;-66
2021/09/01 04:34:25;;;;;;;7.47;5.47;;;;;;;14.23;79.11;98936.48;1716942;82;20987;-66
2021/09/01 04:36:51;;;;;;;5.85;5.10;;;;;;;14.31;79.09;98944.72;1735769;82;21051;-68
2021/09/01 04:39:18;;;;;;;6.15;4.72;;;;;;;14.41;79.08;98938.20;1725574;82;20995;-68
2021/09/01 04:41:44;;;;;;;;;;;;;;;14.63;78.86;98945.55;1740643;82;21051;-68
2021/09/01 04:44:10;;;;;;;6.47;5.00;;;;;;;14.83;78.60;98941.66;1733032;81;20144;-68
2021/09/01 04:46:37;;;;;;;10.95;5.22;;;;;;;14.93;78.22;98947.39;1712366;82;21872;-67
2021/09/01 04:49:03;;;;;;;6.70;4.58;;;;;;;15.02;77.74;98943.31;1729997;82;20971;-67
2021/09/01 04:51:30;;;;;;;7.17;4.33;;;;;;;15.14;77.33;98959.36;1739018;82;21127;-67
2021/09/01 04:53:56;;;;;;;8.25;4.85;;;;;;;15.22;76.86;98962.69;1728355;82;21482;-68
2021/09/01 04:56:22;;;;;;;8.45;4.67;;;;;;;15.32;76.65;98961.00;1710417;82;21054;-68
2021/09/01 04:58:48;;;;;;;;;;;;;;;15.44;76.67;98966.64;1717556;82;21466;-68
2021/09/01 05:01:15;;;;;;;10.48;4.80;;;;;;;15.55;76.26;98955.40;1732932;82;20127;-67
2021/09/01 05:03:41;;;;;;;6.90;4.22;;;;;;;15.53;75.66;98957.64;1698126;82;20969;-67
2021/09/01 05:06:07;;;;;;;;;;;;;;;15.62;75.71;98958.47;1724542;82;21668;-68
2021/09/01 05:08:34;;;;;;;8.45;4.85;;;;;;;15.75;75.57;98958.85;1739431;82;20158;-68
2021/09/01 05:11:00;;;;;;;7.65;4.50;;;;;;;15.79;75.69;98959.81;1738462;82;21030;-68
2021/09/01 05:13:28;;;;;;;6.62;4.37;;;;;;;15.90;75.62;98964.66;1738058;82;21035;-67
2021/09/01 05:15:55;;;;;;;5.62;4.00;;;;;;;16.03;75.32;98967.53;1721268;82;21589;-67
2021/09/01 05:18:21;;;;;;;5.62;4.50;;;;;;;16.14;74.66;98966.05;1738148;82;21090;-67
2021/09/01 05:20:49;;;;;;;6.70;4.00;;;;;;;16.20;74.00;98970.23;1736426;82;21576;-64
2021/09/01 05:23:16;;;;;;;;;;;;;;;16.21;73.51;98969.10;1726904;82;21066;-63
2021/09/01 05:25:51;;;;;;;6.80;4.10;;;;;;;16.21;73.62;98974.03;1722619;81;20133;-63
2021/09/01 05:28:17;;;;;;;6.05;3.92;;;;;;;16.17;73.57;98962.65;1709666;82;21103;-65
2021/09/01 05:30:45;;;;;;;;;;;;;;;16.23;73.17;98959.39;1712188;84;21574;-65
2021/09/01 05:33:11;;;;;;;5.03;3.52;;;;;;;16.35;73.01;98958.72;1715311;82;20119;-65
2021/09/01 05:35:38;;;;;;;;;;;;;;;16.39;72.84;98961.87;1713303;82;21524;-65
2021/09/01 05:38:04;;;;;;;6.20;3.72;;;;;;;16.44;72.56;98964.42;1710127;83;20141;-65
2021/09/01 05:40:30;;;;;;;5.05;3.60;;;;;;;16.38;72.70;98962.99;1710235;84;21087;-64
2021/09/01 05:42:58;;;;;;;6.45;4.25;;;;;;;16.41;72.50;98958.21;1728998;82;21443;-65
2021/09/01 05:45:25;;;;;;;4.78;3.50;;;;;;;16.44;72.02;98949.31;1739330;82;21802;-65
2021/09/01 05:47:52;;;;;;;4.80;3.45;;;;;;;16.48;71.59;98950.83;1739068;82;21039;-65
2021/09/01 05:50:19;;;;;;;;;;;;;;;16.49;71.51;98953.02;1741693;82;21723;-65
2021/09/01 05:52:47;;;;;;;5.75;3.58;;;;;;;16.42;71.86;98943.35;1727642;82;20117;-65
2021/09/01 05:55:13;;;;;;;5.33;3.80;;;;;;;16.30;72.45;98948.71;1711758;82;21003;-65
2021/09/01 05:57:43;;;;;;;7.47;4.10;;;;;;;16.29;72.63;98951.80;1677553;83;21086;-65
2021/09/01 06:00:14;;;;;;;5.35;4.20;;;;;;;16.34;72.66;98948.30;1730710;83;21046;-64
2021/09/01 06:02:54;;;;;;;6.15;3.77;;;;;;;16.36;72.56;98941.13;1731223;81;21030;-65
2021/09/01 06:05:22;;;;;;;5.67;3.98;;;;;;;16.40;72.75;98943.45;1721715;81;21014;-65
2021/09/01 06:07:54;;;;;;;6.45;4.08;;;;;;;16.44;72.89;98948.50;1731278;81;21513;-65
2021/09/01 06:10:28;;;;;;;6.08;4.08;;;;;;;16.43;72.87;98953.77;1730716;83;21532;-65
2021/09/01 06:12:56;;;;;;;6.85;4.67;;;;;;;16.39;72.86;98959.13;1731024;83;20979;-65
2021/09/01 06:15:23;;;;;;;7.42;4.90;;;;;;;16.36;73.02;98954.28;1755012;81;21608;-65
2021/09/01 06:17:50;;;;;;;6.78;4.15;;;;;;;16.32;73.13;98957.45;1761075;81;21026;-65
2021/09/01 06:20:16;;;;;;;6.83;4.22;;;;;;;16.26;73.34;98957.36;1760871;81;21039;-65
2021/09/01 06:22:42;;;;;;;;;;;;;;;16.26;73.55;98953.25;1763834;81;21042;-65
2021/09/01 06:25:10;;;;;;;6.30;4.62;;;;;;;16.30;73.83;98961.07;1744212;81;20100;-63
2021/09/01 06:27:36;;;;;;;6.22;4.12;;;;;;;16.25;74.19;98964.02;1740303;81;21007;-64
2021/09/01 06:30:04;;;;;;;;;;;;;;;16.28;74.26;98963.91;1747867;81;21089;-63
2021/09/01 06:32:30;;;;;;;5.22;3.70;;;;;;;16.33;74.17;98963.75;1730879;83;20100;-63
2021/09/01 06:34:56;;;;;;;;;;;;;;;16.30;73.96;98963.81;1736080;81;21010;-63
2021/09/01 06:37:23;;;;;;;5.87;4.00;;;;;;;16.33;73.99;98969.24;1755995;81;20157;-64
2021/09/01 06:39:51;;;;;;;;;;;;;;;16.30;74.21;98971.25;1756480;81;21035;-64
2021/09/01 06:42:19;;;;;;;6.60;4.58;;;;;;;16.31;74.28;98964.06;1758749;81;20130;-64
2021/09/01 06:44:45;;;;;;;8.80;4.90;;;;;;;16.24;74.64;98960.20;1738710;81;21026;-65
2021/09/01 06:47:12;;;;;;;7.65;4.67;;;;;;;16.25;74.71;98962.64;1741192;80;20995;-65
2021/09/01 06:49:38;;;;;;;;;;;;;;;16.32;74.69;98956.08;1761335;81;21058;-66
2021/09/01 06:52:04;;;;;;;8.85;4.03;;;;;;;16.44;74.56;98956.17;1734932;81;20157;-66
2021/09/01 06:54:31;;;;;;;6.25;3.77;;;;;;;16.52;74.55;98957.84;1752810;81;21501;-66
2021/09/01 06:56:59;;;;;;;8.05;4.15;;;;;;;16.60;74.48;98952.92;1733352;81;21062;-66
2021/09/01 06:59:25;;;;;;;;;;;;;;;16.66;74.08;98961.20;1744850;81;21019;-66
2021/09/01 07:01:51;;;;;;;6.00;4.12;;;;;;;16.71;74.35;98960.48;1737938;81;20152;-65
2021/09/01 07:04:18;;;;;;;7.08;4.80;;;;;;;16.76;74.37;98960.83;1759920;81;21069;-67
2021/09/01 07:06:44;;;;;;;;;;;;;;;16.79;74.19;98964.32;1759029;81;21113;-67
2021/09/01 07:09:11;;;;;;;5.90;4.47;;;;;;;16.88;74.87;98969.20;1744485;81;20137;-67
2021/09/01 07:11:37;;;;;;;6.15;3.92;;;;;;;17.03;75.09;98969.20;1730615;81;21076;-67
2021/09/01 07:14:03;;;;;;;;;;;;;;;17.19;75.05;98968.84;1734184;81;21046;-67
2021/09/01 07:16:30;;;;;;;7.35;3.98;;;;;;;17.33;74.94;98968.02;1735100;81;20105;-66
2021/09/01 07:18:56;;;;;;;5.50;4.08;;;;;;;17.39;74.50;98966.10;1752307;81;21573;-66
2021/09/01 07:21:23;;;;;;;7.62;4.37;;;;;;;17.55;73.74;98961.38;1730646;81;21070;-66
2021/09/01 07:23:49;;;;;;;;;;;;;;;17.65;73.02;98970.06;1734366;81;21521;-66
2021/09/01 07:26:15;;;;;;;6.17;4.03;;;;;;;17.75;72.87;98971.59;1744849;81;20108;-66
2021/09/01 07:28:41;;;;;;;;;;;;;;;17.74;72.96;98968.06;1745555;81;20950;-66
2021/09/01 07:31:09;;;;;;;9.33;4.30;;;;;;;17.82;72.79;98974.05;1730436;81;20134;-66
2021/09/01 07:33:35;;;;;;;5.30;3.98;;;;;;;17.82;72.46;98976.80;1748249;81;21022;-67
2021/09/01 07:36:02;;;;;;;6.33;4.30;;;;;;;17.86;71.45;98975.55;1695812;84;21066;-68
2021/09/01 07:38:29;;;;;;;8.05;6.20;;;;;;;17.78;70.90;98977.83;1710059;82;21009;-68
2021/09/01 07:40:55;;;;;;;;;;;;;;;17.63;70.75;98978.44;1700031;83;21038;-67
2021/09/01 07:43:21;;;;;;;9.08;5.95;;;;;;;17.49;70.92;98979.24;1693350;83;20162;-69
2021/09/01 07:45:48;;;;;;;18.50;13.20;;;;;;;17.32;70.92;98982.93;1724169;83;21525;-64
2021/09/01 07:48:15;;;;;;;10.32;7.67;;;;;;;17.20;71.27;98981.47;1711442;82;21006;-62
2021/09/01 07:50:42;;;;;;;9.25;6.15;;;;;;;17.12;71.70;98980.37;1685946;85;21057;-61
2021/09/01 07:53:08;;;;;;;9.35;5.03;;;;;;;17.14;72.25;98980.05;1685390;84;20996;-62
2021/09/01 07:55:35;;;;;;;5.83;4.80;;;;;;;17.19;72.43;98983.41;1688027;84;21453;-66
2021/09/01 07:58:01;;;;;;;;;;;;;;;17.26;72.36;98986.43;1697227;83;20979;-66
2021/09/01 08:00:27;;;;;;;5.50;4.42;;;;;;;17.29;72.20;98981.63;1675893;84;20133;-67
2021/09/01 08:02:54;;;;;;;;;;;;;;;17.23;72.06;98978.85;1687807;84;21502;-67
2021/09/01 08:05:20;;;;;;;5.55;4.37;;;;;;;17.23;71.99;98973.34;1696912;84;20126;-68
2021/09/01 08:07:48;;;;;;;6.97;4.70;;;;;;;17.15;72.71;98972.02;1699076;84;21059;-68
2021/09/01 08:10:15;;;;;;;6.55;4.83;;;;;;;17.29;73.20;98977.51;1692798;84;21107;-65
2021/09/01 08:12:42;;;;;;;5.08;3.80;;;;;;;17.44;72.86;98969.23;1735116;82;21044;-68
2021/09/01 08:15:11;;;;;;;6.25;4.85;;;;;;;17.65;72.86;98974.20;1711466;84;21042;-68
2021/09/01 08:17:39;;;;;;;6.47;5.25;;;;;;;17.83;72.42;98973.47;1681751;85;21040;-68
2021/09/01 08:20:07;;;;;;;7.75;5.50;;;;;;;18.00;72.13;98970.55;1728449;82;21059;-68
2021/09/01 08:22:33;;;;;;;7.67;5.00;;;;;;;18.23;72.54;98964.91;1733458;81;20980;-68
2021/09/01 08:25:01;;;;;;;7.28;4.75;;;;;;;18.60;71.19;98963.03;1741100;81;21119;-66
2021/09/01 08:27:28;;;;;;;7.22;5.30;;;;;;;19.04;70.76;98966.03;1691918;83;21063;-65
2021/09/01 08:29:54;;;;;;;6.10;4.22;;;;;;;19.42;68.75;98969.80;1725650;82;21519;-67
2021/09/01 08:32:20;;;;;;;8.18;5.55;;;;;;;19.79;67.65;98963.84;1728570;82;21043;-66
2021/09/01 08:34:47;;;;;;;6.80;4.78;;;;;;;19.86;64.65;98963.23;1721443;82;21003;-66
2021/09/01 08:37:14;;;;;;;6.50;4.78;;;;;;;19.79;64.73;98964.41;1723113;82;21046;-63
2021/09/01 08:39:40;;;;;;;6.95;4.30;;;;;;;19.95;65.77;98962.49;1746113;82;21031;-67
2021/09/01 08:42:07;;;;;;;6.65;4.55;;;;;;;20.24;64.71;98959.93;1696421;84;21074;-66
2021/09/01 08:44:34;;;;;;;5.17;3.90;;;;;;;20.39;63.70;98957.80;1683138;84;21063;-66
2021/09/01 08:47:01;;;;;;;5.37;3.70;;;;;;;20.47;61.88;98960.18;1738783;82;21027;-67
2021/09/01 08:49:28;;;;;;;6.90;4.10;;;;;;;20.46;60.27;98957.99;1722685;82;21026;-67
2021/09/01 08:51:55;;;;;;;5.33;3.42;;;;;;;20.41;60.17;98961.58;1722491;82;21086;-67
2021/09/01 08:54:22;;;;;;;6.75;3.65;;;;;;;20.51;60.88;98961.08;1723599;82;21023;-67
2021/09/01 08:56:48;;;;;;;4.55;3.00;;;;;;;20.69;60.61;98963.72;1661572;85;21115;-67
2021/09/01 08:59:15;;;;;;;5.33;3.02;;;;;;;20.92;60.02;98956.37;1738672;82;20999;-67
2021/09/01 09:01:45;;;;;;;4.05;2.70;;;;;;;21.18;58.84;98951.69;1725379;82;21054;-67
2021/09/01 09:04:21;;;;;;;4.67;3.20;;;;;;;21.46;56.56;98957.05;1723407;83;20998;-67
2021/09/01 09:06:52;;;;;;;4.92;3.17;;;;;;;21.57;56.44;98955.32;1723150;82;21107;-67
2021/09/01 09:12:01;;;;;;;8.08;3.55;;;;;;;21.98;54.84;98942.14;1762267;79;22884;-66
2021/09/01 09:14:41;;;;;;;4.15;2.98;;;;;;;21.96;55.77;98948.65;1723046;82;20996;-66
2021/09/01 09:17:14;;;;;;;4.22;2.90;;;;;;;22.16;55.87;98953.58;1649589;85;21086;-65
2021/09/01 09:20:00;;;;;;;4.17;2.80;;;;;;;22.38;54.68;98943.10;1686230;84;21075;-66
2021/09/01 09:22:31;;;;;;;5.20;3.30;;;;;;;22.50;53.53;98944.29;1700172;84;21584;-66
2021/09/01 09:25:03;;;;;;;3.72;2.67;;;;;;;22.42;52.66;98938.42;1677219;85;21091;-67
2021/09/01 09:27:47;;;;;;;3.70;2.45;;;;;;;22.52;52.79;98945.32;1678478;85;21097;-66
2021/09/01 09:30:35;;;;;;;3.80;2.77;;;;;;;22.51;52.04;98945.09;1657125;85;21100;-65
2021/09/01 09:33:17;;;;;;;4.10;2.80;;;;;;;22.55;52.56;98939.84;1655825;85;21069;-66
2021/09/01 09:35:59;;;;;;;3.65;2.62;;;;;;;22.78;53.44;98939.83;1687761;84;21054;-66
2021/09/01 09:38:42;;;;;;;3.62;2.65;;;;;;;23.03;52.89;98934.67;1667124;85;20983;-67
2021/09/01 09:41:28;;;;;;;6.58;2.80;;;;;;;23.00;50.03;98922.94;1697432;84;21023;-67
2021/09/01 09:43:59;;;;;;;3.75;2.35;;;;;;;23.02;49.77;98935.88;1689367;84;21075;-67
2021/09/01 09:46:26;;;;;;;5.45;2.10;;;;;;;22.92;50.80;98930.96;1710647;84;21117;-67
2021/09/01 09:48:53;;;;;;;5.58;2.20;;;;;;;22.98;50.33;98926.69;1709889;83;21039;-67
2021/09/01 09:51:42;;;;;;;4.45;2.40;;;;;;;23.06;50.34;98926.41;1702536;82;21616;-67
2021/09/01 09:54:18;;;;;;;3.37;2.22;;;;;;;23.14;49.79;98930.09;1688074;84;20979;-66
2021/09/01 09:56:45;;;;;;;;;;;;;;;23.19;49.03;98932.55;1689866;84;21042;-67
2021/09/01 09:59:23;;;;;;;3.22;2.17;;;;;;;23.27;49.71;98932.30;1693133;84;20153;-67
2021/09/01 10:01:50;;;;;;;3.47;2.47;;;;;;;23.27;48.96;98921.77;1692637;84;21098;-67
2021/09/01 10:04:16;;;;;;;4.37;2.37;;;;;;;23.31;47.93;98921.23;1702295;84;21046;-67
2021/09/01 10:06:43;;;;;;;4.33;2.80;;;;;;;23.28;47.56;98919.98;1709202;84;21132;-67
2021/09/01 10:09:10;;;;;;;4.08;2.25;;;;;;;23.27;47.25;98918.99;1687341;84;21600;-67
2021/09/01 10:11:39;;;;;;;4.03;2.47;;;;;;;23.29;47.65;98918.83;1670719;85;21036;-68
2021/09/01 10:14:08;;;;;;;3.12;2.20;;;;;;;23.24;46.85;98920.52;1724290;81;21003;-67
2021/09/01 10:16:36;;;;;;;3.72;1.92;;;;;;;23.09;46.96;98915.97;1701759;82;21570;-66
2021/09/01 10:19:13;;;;;;;6.05;3.00;;;;;;;22.92;47.09;98917.86;1721161;82;21430;-67
2021/09/01 10:21:42;;;;;;;4.70;2.52;;;;;;;22.75;46.73;98916.42;1708942;82;21111;-67
2021/09/01 10:24:19;;;;;;;2.98;2.20;;;;;;;22.70;48.16;98914.56;1711879;82;20995;-68
2021/09/01 10:27:23;;;;;;;3.02;2.20;;;;;;;22.82;48.03;98911.56;1713206;82;21107;-66
2021/09/01 10:29:58;;;;;;;5.35;2.52;;;;;;;22.88;46.47;98911.48;1732349;82;21455;-68
2021/09/01 10:32:46;;;;;;;5.55;2.52;;;;;;;22.76;46.48;98906.93;1731654;82;21071;-66
2021/09/01 10:35:18;;;;;;;4.08;2.33;;;;;;;22.74;46.52;98903.71;1727197;82;21051;-67
2021/09/01 10:37:53;;;;;;;3.85;2.47;;;;;;;22.80;46.76;98902.83;1730745;82;20976;-66
2021/09/01 10:40:31;;;;;;;3.67;2.40;;;;;;;22.83;46.56;98899.30;1727788;82;21019;-65
2021/09/01 10:43:00;;;;;;;4.17;2.20;;;;;;;22.73;47.23;98895.20;1730728;82;21008;-67
2021/09/01 10:45:51;;;;;;;3.55;2.27;;;;;;;22.67;47.88;98899.44;1727927;82;21091;-67
2021/09/01 10:48:17;;;;;;;4.53;2.00;;;;;;;22.63;47.95;98893.02;1723834;82;21023;-68
2021/09/01 10:50:46;;;;;;;3.52;2.20;;;;;;;22.56;48.30;98892.10;1725953;82;21107;-67
2021/09/01 10:53:29;;;;;;;3.08;2.10;;;;;;;22.63;48.52;98896.37;1719880;81;21007;-68
2021/09/01 10:56:04;;;;;;;3.22;2.02;;;;;;;22.79;47.53;98891.50;1722598;82;21048;-69
2021/09/01 10:58:43;;;;;;;5.47;2.08;;;;;;;22.88;46.15;98897.61;1720858;82;21445;-67
2021/09/01 11:01:19;;;;;;;4.33;1.98;;;;;;;22.89;45.82;98892.25;1724331;82;21063;-66
2021/09/01 11:04:05;;;;;;;4.22;2.30;;;;;;;22.95;46.60;98893.55;1717889;82;21019;-68
2021/09/01 11:06:36;;;;;;;4.03;2.00;;;;;;;23.09;46.16;98896.53;1739264;82;21008;-68
2021/09/01 11:09:11;;;;;;;3.45;1.90;;;;;;;23.29;46.77;98905.52;1733558;82;20976;-66
2021/09/01 11:11:50;;;;;;;2.70;1.80;;;;;;;23.36;44.46;98897.29;1716375;82;21012;-66
2021/09/01 11:14:46;;;;;;;3.80;1.90;;;;;;;23.33;45.03;98902.80;1709996;84;21047;-67
2021/09/01 11:17:16;;;;;;;;;;;;;;;23.20;45.41;98906.41;1712778;82;21127;-67
2021/09/01 11:19:49;;;;;;;2.10;1.60;;;;;;;23.18;45.20;98901.21;1710143;81;20098;-67
2021/09/01 11:22:21;;;;;;;4.22;2.12;;;;;;;23.21;45.14;98898.27;1663843;86;21078;-67
2021/09/01 11:24:52;;;;;;;2.25;1.60;;;;;;;23.29;45.93;98894.42;1710127;84;21007;-67
2021/09/01 11:27:25;;;;;;;4.70;1.50;;;;;;;23.41;45.33;98890.61;1713900;82;21031;-68
2021/09/01 11:30:07;;;;;;;2.10;1.40;;;;;;;23.69;45.87;98899.33;1714606;82;20980;-67
2021/09/01 11:32:35;;;;;;;2.62;1.70;;;;;;;23.69;45.87;98899.33;1711736;82;21613;-67
2021/09/01 11:35:05;;;;;;;2.35;1.62;;;;;;;23.82;45.20;98897.09;1713755;82;21038;-67
2021/09/01 11:37:32;;;;;;;2.20;1.70;;;;;;;23.82;45.20;98897.09;1734264;82;21091;-66
2021/09/01 11:39:58;;;;;;;2.50;1.80;;;;;;;23.75;45.14;98894.44;1733611;82;20991;-66
2021/09/01 11:42:24;;;;;;;3.08;1.90;;;;;;;23.68;45.50;98894.36;1710849;82;21043;-67
2021/09/01 11:44:58;;;;;;;3.02;2.00;;;;;;;23.55;46.18;98893.60;1709932;84;21008;-67
2021/09/01 11:47:25;;;;;;;3.77;2.35;;;;;;;23.36;45.31;98893.70;1709695;83;21063;-66
2021/09/01 11:49:53;;;;;;;4.72;2.40;;;;;;;23.08;45.16;98886.59;1718498;82;20999;-65
2021/09/01 11:52:36;;;;;;;2.83;1.75;;;;;;;23.01;45.45;98880.95;1709623;83;21119;-66
2021/09/01 11:55:04;;;;;;;3.02;1.90;;;;;;;23.05;46.38;98881.80;1663940;86;21100;-66